createdAt,value
2022-09-28T00:00:55.507Z,9.46
2022-09-28T00:01:57.792Z,9.43
2022-09-28T00:03:00.210Z,9.43
2022-09-28T00:04:02.699Z,9.43
2022-09-28T00:05:05.369Z,9.52
2022-09-28T00:06:10.510Z,9.47
2022-09-28T00:07:12.791Z,9.57
2022-09-28T00:08:14.959Z,9.49
2022-09-28T00:09:17.794Z,9.38
2022-09-28T00:10:23.567Z,9.39
2022-09-28T00:11:28.206Z,9.37
2022-09-28T00:12:31.529Z,9.33
2022-09-28T00:13:35.201Z,9.27
2022-09-28T00:14:37.437Z,9.25
2022-09-28T00:15:39.799Z,9.29
2022-09-28T00:16:44.153Z,9.34
2022-09-28T00:17:46.313Z,9.40
2022-09-28T00:18:51.039Z,9.40
2022-09-28T00:19:53.245Z,9.34
2022-09-28T00:21:12.274Z,9.37
2022-09-28T00:22:14.428Z,9.39
2022-09-28T00:23:16.840Z,9.40
2022-09-28T00:24:22.931Z,9.30
2022-09-28T00:25:28.081Z,9.38
2022-09-28T00:26:32.950Z,9.41
2022-09-28T00:27:35.216Z,9.47
2022-09-28T00:28:37.790Z,9.52
2022-09-28T00:29:40.005Z,9.50
2022-09-28T00:30:42.305Z,9.53
2022-09-28T00:31:44.609Z,9.45
2022-09-28T00:32:46.827Z,9.34
2022-09-28T00:33:53.596Z,9.28
2022-09-28T00:34:55.833Z,9.33
2022-09-28T00:35:58.763Z,9.37
2022-09-28T00:37:02.651Z,9.38
2022-09-28T00:38:04.815Z,9.35
2022-09-28T00:39:08.544Z,9.36
2022-09-28T00:40:10.744Z,9.39
2022-09-28T00:41:13.503Z,9.44
2022-09-28T00:42:21.429Z,9.44
2022-09-28T00:43:24.605Z,9.47
2022-09-28T00:44:26.710Z,9.39
2022-09-28T00:45:28.981Z,9.41
2022-09-28T00:46:35.194Z,9.36
2022-09-28T00:47:52.363Z,9.32
2022-09-28T00:49:03.082Z,9.33
2022-09-28T00:50:21.087Z,9.36
2022-09-28T00:51:25.773Z,9.42
2022-09-28T00:52:33.658Z,9.47
2022-09-28T00:53:39.277Z,9.58
2022-09-28T00:54:45.910Z,9.51
2022-09-28T00:55:58.857Z,9.44
2022-09-28T00:57:02.935Z,9.49
2022-09-28T00:58:09.000Z,9.50
2022-09-28T00:59:11.323Z,9.50
2022-09-28T01:00:15.916Z,9.51
2022-09-28T01:01:18.444Z,9.41
2022-09-28T01:02:21.712Z,9.43
2022-09-28T01:03:25.486Z,9.40
2022-09-28T01:04:30.176Z,9.36
2022-09-28T01:05:35.759Z,9.32
2022-09-28T01:06:38.901Z,9.32
2022-09-28T01:07:41.446Z,9.25
2022-09-28T01:08:45.861Z,9.24
2022-09-28T01:09:50.523Z,9.21
2022-09-28T01:10:52.998Z,9.22
2022-09-28T01:11:55.536Z,9.24
2022-09-28T01:12:58.816Z,9.32
2022-09-28T01:14:01.450Z,9.32
2022-09-28T01:15:05.537Z,9.35
2022-09-28T01:16:38.363Z,9.41
2022-09-28T01:18:11.578Z,9.36
2022-09-28T01:19:37.872Z,9.30
2022-09-28T01:20:54.080Z,9.30
2022-09-28T01:22:19.160Z,9.33
2022-09-28T01:23:54.826Z,9.37
2022-09-28T01:24:59.451Z,9.42
2022-09-28T01:26:44.560Z,9.43
2022-09-28T01:28:14.330Z,9.30
2022-09-28T01:29:37.234Z,9.33
2022-09-28T01:30:50.995Z,9.35
2022-09-28T01:32:01.399Z,9.42
2022-09-28T01:33:08.455Z,9.43
2022-09-28T01:34:24.135Z,9.43
2022-09-28T01:35:33.498Z,9.40
2022-09-28T01:36:42.365Z,9.39
2022-09-28T01:37:55.707Z,9.47
2022-09-28T01:39:23.420Z,9.54
2022-09-28T01:40:28.722Z,9.50
2022-09-28T01:41:33.429Z,9.49
2022-09-28T01:42:39.680Z,9.50
2022-09-28T01:43:48.359Z,9.50
2022-09-28T01:44:53.371Z,9.51
2022-09-28T01:46:01.887Z,9.51
2022-09-28T01:47:04.910Z,9.49
2022-09-28T01:48:10.002Z,9.43
2022-09-28T01:49:24.032Z,9.42
2022-09-28T01:50:30.709Z,9.40
2022-09-28T01:51:48.028Z,9.35
2022-09-28T01:52:56.321Z,9.34
2022-09-28T01:54:20.169Z,9.35
2022-09-28T01:55:34.297Z,9.37
2022-09-28T01:56:51.466Z,9.28
2022-09-28T01:57:56.387Z,9.23
2022-09-28T01:59:12.419Z,9.21
2022-09-28T02:00:18.227Z,9.20
2022-09-28T02:01:34.094Z,9.20
2022-09-28T02:02:43.368Z,9.20
2022-09-28T02:04:14.250Z,9.17
2022-09-28T02:05:21.409Z,9.20
2022-09-28T02:06:34.246Z,9.26
2022-09-28T02:07:50.020Z,9.25
2022-09-28T02:08:57.370Z,9.29
2022-09-28T02:10:19.559Z,9.28
2022-09-28T02:11:23.158Z,9.22
2022-09-28T02:12:35.078Z,9.12
2022-09-28T02:13:44.726Z,9.11
2022-09-28T02:14:50.181Z,9.20
2022-09-28T02:16:31.526Z,9.28
2022-09-28T02:17:34.059Z,9.19
2022-09-28T02:18:36.656Z,9.20
2022-09-28T02:19:40.010Z,9.21
2022-09-28T02:20:48.264Z,9.26
2022-09-28T02:22:03.361Z,9.23
2022-09-28T02:23:07.655Z,9.26
2022-09-28T02:24:23.360Z,9.24
2022-09-28T02:25:42.947Z,9.21
2022-09-28T02:26:48.217Z,9.24
2022-09-28T02:27:53.075Z,9.27
2022-09-28T02:28:55.516Z,9.19
2022-09-28T02:29:57.760Z,9.15
2022-09-28T02:31:01.009Z,9.12
2022-09-28T02:32:03.463Z,9.11
2022-09-28T02:33:16.681Z,9.16
2022-09-28T02:34:19.314Z,9.12
2022-09-28T02:35:22.469Z,9.06
2022-09-28T02:36:28.992Z,9.09
2022-09-28T02:37:31.500Z,9.07
2022-09-28T02:38:34.464Z,9.06
2022-09-28T02:39:37.438Z,9.01
2022-09-28T02:40:41.841Z,9.07
2022-09-28T02:42:17.177Z,9.05
2022-09-28T02:44:08.470Z,9.07
2022-09-28T02:45:37.326Z,9.07
2022-09-28T02:47:00.469Z,9.05
2022-09-28T02:48:15.538Z,9.16
2022-09-28T02:49:26.498Z,9.26
2022-09-28T02:50:56.350Z,9.21
2022-09-28T02:52:08.797Z,9.18
2022-09-28T02:53:39.322Z,9.19
2022-09-28T02:55:00.261Z,9.00
2022-09-28T02:56:05.263Z,8.96
2022-09-28T02:57:19.694Z,8.94
2022-09-28T02:58:35.576Z,8.97
2022-09-28T02:59:47.604Z,8.90
2022-09-28T03:01:18.295Z,8.86
2022-09-28T03:02:25.880Z,8.89
2022-09-28T03:03:48.477Z,8.87
2022-09-28T03:05:19.842Z,8.92
2022-09-28T03:06:30.953Z,8.96
2022-09-28T03:07:40.453Z,8.85
2022-09-28T03:08:57.994Z,8.83
2022-09-28T03:10:13.751Z,8.83
2022-09-28T03:11:53.084Z,8.74
2022-09-28T03:12:56.629Z,8.75
2022-09-28T03:13:59.795Z,8.80
2022-09-28T03:15:30.196Z,8.69
2022-09-28T03:16:32.764Z,8.65
2022-09-28T03:17:35.000Z,8.59
2022-09-28T03:18:37.570Z,8.63
2022-09-28T03:19:40.070Z,8.58
2022-09-28T03:20:42.475Z,8.56
2022-09-28T03:21:44.947Z,8.57
2022-09-28T03:23:00.497Z,8.63
2022-09-28T03:24:11.117Z,8.66
2022-09-28T03:25:14.225Z,8.62
2022-09-28T03:26:16.832Z,8.60
2022-09-28T03:27:28.440Z,8.51
2022-09-28T03:28:30.865Z,8.51
2022-09-28T03:29:34.424Z,8.61
2022-09-28T03:30:41.654Z,8.56
2022-09-28T03:31:44.440Z,8.53
2022-09-28T03:32:47.304Z,8.51
2022-09-28T03:33:51.524Z,8.54
2022-09-28T03:34:54.367Z,8.46
2022-09-28T03:35:56.824Z,8.51
2022-09-28T03:36:59.351Z,8.54
2022-09-28T03:38:01.544Z,8.54
2022-09-28T03:39:05.991Z,8.49
2022-09-28T03:40:08.722Z,8.49
2022-09-28T03:41:10.897Z,8.51
2022-09-28T03:42:16.148Z,8.49
2022-09-28T03:43:23.638Z,8.43
2022-09-28T03:44:27.537Z,8.38
2022-09-28T03:45:29.727Z,8.40
2022-09-28T03:46:32.154Z,8.39
2022-09-28T03:47:39.959Z,8.42
2022-09-28T03:48:42.398Z,8.47
2022-09-28T03:49:46.309Z,8.47
2022-09-28T03:50:53.296Z,8.41
2022-09-28T03:51:55.471Z,8.36
2022-09-28T03:53:03.664Z,8.31
2022-09-28T03:54:06.273Z,8.30
2022-09-28T03:55:09.041Z,8.27
2022-09-28T03:56:14.580Z,8.27
2022-09-28T03:57:17.476Z,8.24
2022-09-28T03:58:23.532Z,8.22
2022-09-28T03:59:25.737Z,8.25
2022-09-28T04:00:28.247Z,8.15
2022-09-28T04:01:31.133Z,8.12
2022-09-28T04:02:34.902Z,8.07
2022-09-28T04:03:38.478Z,8.12
2022-09-28T04:04:40.767Z,8.08
2022-09-28T04:05:53.428Z,8.11
2022-09-28T04:06:55.648Z,8.14
2022-09-28T04:07:58.007Z,8.19
2022-09-28T04:09:00.332Z,8.13
2022-09-28T04:10:02.516Z,8.15
2022-09-28T04:11:05.149Z,8.19
2022-09-28T04:12:07.345Z,8.18
2022-09-28T04:13:09.690Z,8.18
2022-09-28T04:14:14.127Z,8.13
2022-09-28T04:15:16.894Z,8.11
2022-09-28T04:16:19.390Z,8.14
2022-09-28T04:17:40.235Z,8.05
2022-09-28T04:18:51.203Z,8.04
2022-09-28T04:20:19.402Z,8.01
2022-09-28T04:21:42.808Z,7.98
2022-09-28T04:22:48.453Z,7.97
2022-09-28T04:23:51.665Z,8.01
2022-09-28T04:24:53.913Z,8.05
2022-09-28T04:25:56.087Z,8.02
2022-09-28T04:27:18.177Z,7.94
2022-09-28T04:28:39.187Z,7.91
2022-09-28T04:29:41.848Z,7.93
2022-09-28T04:30:46.820Z,7.85
2022-09-28T04:31:51.295Z,7.83
2022-09-28T04:32:54.765Z,7.76
2022-09-28T04:33:57.747Z,7.72
2022-09-28T04:35:00.509Z,7.58
2022-09-28T04:36:02.857Z,7.58
2022-09-28T04:37:05.635Z,7.65
2022-09-28T04:38:08.067Z,7.62
2022-09-28T04:39:16.427Z,7.66
2022-09-28T04:40:21.956Z,7.63
2022-09-28T04:41:25.235Z,7.52
2022-09-28T04:42:27.374Z,7.54
2022-09-28T04:43:29.886Z,7.53
2022-09-28T04:44:32.366Z,7.57
2022-09-28T04:45:39.989Z,7.50
2022-09-28T04:46:46.071Z,7.54
2022-09-28T04:48:10.755Z,7.52
2022-09-28T04:49:37.050Z,7.60
2022-09-28T04:50:44.881Z,7.61
2022-09-28T04:51:54.389Z,7.69
2022-09-28T04:52:56.688Z,7.78
2022-09-28T04:53:59.377Z,7.75
2022-09-28T04:55:01.548Z,7.76
2022-09-28T04:56:07.009Z,7.80
2022-09-28T04:57:09.986Z,7.82
2022-09-28T04:58:13.312Z,7.82
2022-09-28T04:59:15.734Z,7.76
2022-09-28T05:00:18.617Z,7.75
2022-09-28T05:01:35.079Z,7.81
2022-09-28T05:03:05.939Z,7.89
2022-09-28T05:04:37.514Z,7.85
2022-09-28T05:06:01.081Z,7.85
2022-09-28T05:07:12.669Z,7.77
2022-09-28T05:08:15.321Z,7.85
2022-09-28T05:09:17.786Z,7.88
2022-09-28T05:10:20.191Z,7.91
2022-09-28T05:11:22.942Z,7.87
2022-09-28T05:12:25.245Z,7.81
2022-09-28T05:13:28.846Z,7.92
2022-09-28T05:14:31.054Z,7.93
2022-09-28T05:15:37.718Z,8.03
2022-09-28T05:16:40.380Z,7.94
2022-09-28T05:18:00.986Z,7.91
2022-09-28T05:19:17.344Z,8.00
2022-09-28T05:20:19.836Z,8.05
2022-09-28T05:21:24.804Z,8.14
2022-09-28T05:22:27.082Z,8.14
2022-09-28T05:23:30.559Z,8.20
2022-09-28T05:24:32.963Z,8.23
2022-09-28T05:25:35.460Z,8.28
2022-09-28T05:26:44.889Z,8.28
2022-09-28T05:27:47.396Z,8.27
2022-09-28T05:29:05.890Z,8.30
2022-09-28T05:30:36.894Z,8.37
2022-09-28T05:32:02.607Z,8.31
2022-09-28T05:33:23.194Z,8.35
2022-09-28T05:34:31.966Z,8.38
2022-09-28T05:35:34.198Z,8.44
2022-09-28T05:36:37.058Z,8.44
2022-09-28T05:37:41.172Z,8.44
2022-09-28T05:38:43.696Z,8.44
2022-09-28T05:39:45.924Z,8.40
2022-09-28T05:40:48.199Z,8.45
2022-09-28T05:41:50.525Z,8.42
2022-09-28T05:42:52.909Z,8.48
2022-09-28T05:43:55.271Z,8.47
2022-09-28T05:45:00.349Z,8.49
2022-09-28T05:46:02.790Z,8.58
2022-09-28T05:47:05.287Z,8.60
2022-09-28T05:48:07.531Z,8.56
2022-09-28T05:49:09.739Z,8.57
2022-09-28T05:50:15.687Z,8.66
2022-09-28T05:51:19.366Z,8.73
2022-09-28T05:52:22.244Z,8.78
2022-09-28T05:53:24.731Z,8.81
2022-09-28T05:54:27.192Z,8.79
2022-09-28T05:55:29.828Z,8.89
2022-09-28T05:56:32.323Z,8.86
2022-09-28T05:57:34.663Z,8.88
2022-09-28T05:58:37.449Z,8.88
2022-09-28T05:59:40.250Z,8.92
2022-09-28T06:00:43.049Z,9.03
2022-09-28T06:01:45.632Z,8.95
2022-09-28T06:02:56.339Z,8.97
2022-09-28T06:03:58.529Z,8.86
2022-09-28T06:05:01.762Z,8.94
2022-09-28T06:06:04.290Z,8.96
2022-09-28T06:07:07.253Z,8.98
2022-09-28T06:08:10.660Z,9.00
2022-09-28T06:09:19.360Z,8.96
2022-09-28T06:10:35.506Z,8.88
2022-09-28T06:11:38.343Z,8.94
2022-09-28T06:13:01.512Z,8.91
2022-09-28T06:14:05.076Z,8.98
2022-09-28T06:15:08.514Z,9.12
2022-09-28T06:16:16.508Z,9.33
2022-09-28T06:17:19.116Z,9.28
2022-09-28T06:18:27.482Z,9.29
2022-09-28T06:19:48.426Z,9.29
2022-09-28T06:21:02.930Z,9.37
2022-09-28T06:22:11.012Z,9.42
2022-09-28T06:23:20.787Z,9.50
2022-09-28T06:24:23.282Z,9.52
2022-09-28T06:25:27.689Z,9.48
2022-09-28T06:26:30.275Z,9.52
2022-09-28T06:27:34.196Z,9.53
2022-09-28T06:28:37.117Z,9.50
2022-09-28T06:29:40.997Z,9.52
2022-09-28T06:30:45.217Z,9.60
2022-09-28T06:31:51.605Z,9.71
2022-09-28T06:32:56.292Z,9.71
2022-09-28T06:34:02.197Z,9.82
2022-09-28T06:35:05.008Z,9.81
2022-09-28T06:36:08.531Z,9.81
2022-09-28T06:37:10.791Z,9.81
2022-09-28T06:38:13.160Z,9.79
2022-09-28T06:39:15.440Z,9.71
2022-09-28T06:40:19.261Z,9.64
2022-09-28T06:41:22.460Z,9.79
2022-09-28T06:42:24.680Z,9.83
2022-09-28T06:43:48.215Z,10.05
2022-09-28T06:45:21.827Z,10.15
2022-09-28T06:46:46.625Z,9.88
2022-09-28T06:47:59.713Z,9.83
2022-09-28T06:49:18.649Z,9.85
2022-09-28T06:50:41.324Z,9.94
2022-09-28T06:51:49.054Z,10.09
2022-09-28T06:52:57.215Z,10.24
2022-09-28T06:54:08.121Z,10.15
2022-09-28T06:55:35.275Z,10.33
2022-09-28T06:56:38.474Z,10.38
2022-09-28T06:57:40.697Z,10.62
2022-09-28T06:58:43.023Z,10.70
2022-09-28T06:59:46.851Z,10.73
2022-09-28T07:00:51.893Z,10.79
2022-09-28T07:01:54.727Z,10.91
2022-09-28T07:03:16.436Z,10.99
2022-09-28T07:04:37.204Z,10.90
2022-09-28T07:06:11.527Z,11.15
2022-09-28T07:07:37.150Z,11.24
2022-09-28T07:09:08.503Z,11.26
2022-09-28T07:10:34.726Z,11.27
2022-09-28T07:11:55.733Z,11.26
2022-09-28T07:13:43.565Z,11.28
2022-09-28T07:14:47.714Z,11.10
2022-09-28T07:15:59.462Z,11.02
2022-09-28T07:17:13.033Z,10.70
2022-09-28T07:18:17.903Z,10.85
2022-09-28T07:19:20.320Z,10.80
2022-09-28T07:20:22.686Z,10.94
2022-09-28T07:21:30.287Z,10.90
2022-09-28T07:22:42.831Z,10.99
2022-09-28T07:23:53.757Z,11.07
2022-09-28T07:24:59.429Z,10.91
2022-09-28T07:26:33.178Z,10.89
2022-09-28T07:27:38.326Z,10.89
2022-09-28T07:28:54.272Z,10.88
2022-09-28T07:30:33.439Z,10.97
2022-09-28T07:31:55.860Z,10.96
2022-09-28T07:33:32.804Z,10.96
2022-09-28T07:34:52.483Z,11.05
2022-09-28T07:36:08.927Z,11.13
2022-09-28T07:37:12.460Z,11.10
2022-09-28T07:38:15.208Z,11.11
2022-09-28T07:39:17.542Z,11.21
2022-09-28T07:40:39.013Z,11.32
2022-09-28T07:41:41.459Z,11.14
2022-09-28T07:42:45.618Z,11.33
2022-09-28T07:43:49.783Z,11.50
2022-09-28T07:44:52.367Z,11.61
2022-09-28T07:45:55.735Z,11.76
2022-09-28T07:46:58.919Z,11.72
2022-09-28T07:48:36.773Z,11.72
2022-09-28T07:49:59.139Z,11.66
2022-09-28T07:51:17.912Z,11.66
2022-09-28T07:52:29.992Z,11.70
2022-09-28T07:53:42.188Z,11.60
2022-09-28T07:55:07.165Z,11.67
2022-09-28T07:56:28.412Z,11.64
2022-09-28T07:58:01.804Z,11.88
2022-09-28T07:59:26.791Z,12.14
2022-09-28T08:00:52.314Z,12.03
2022-09-28T08:01:54.620Z,11.85
2022-09-28T08:03:00.245Z,11.81
2022-09-28T08:04:03.232Z,11.71
2022-09-28T08:05:05.944Z,11.61
2022-09-28T08:06:11.235Z,11.66
2022-09-28T08:07:14.251Z,11.62
2022-09-28T08:08:18.516Z,11.49
2022-09-28T08:09:21.147Z,11.61
2022-09-28T08:10:46.961Z,11.66
2022-09-28T08:12:19.672Z,11.79
2022-09-28T08:13:41.331Z,11.79
2022-09-28T08:15:11.411Z,11.87
2022-09-28T08:16:25.562Z,11.79
2022-09-28T08:17:48.768Z,11.93
2022-09-28T08:18:54.183Z,11.87
2022-09-28T08:20:15.113Z,11.90
2022-09-28T08:21:36.312Z,11.77
2022-09-28T08:22:38.945Z,11.93
2022-09-28T08:23:41.746Z,11.93
2022-09-28T08:24:45.017Z,11.86
2022-09-28T08:25:51.089Z,11.61
2022-09-28T08:26:55.578Z,11.53
2022-09-28T08:28:00.095Z,11.48
2022-09-28T08:29:03.899Z,11.31
2022-09-28T08:30:38.544Z,11.31
2022-09-28T08:31:57.268Z,11.38
2022-09-28T08:33:04.223Z,11.45
2022-09-28T08:34:18.895Z,11.57
2022-09-28T08:35:42.094Z,11.48
2022-09-28T08:36:49.024Z,11.46
2022-09-28T08:38:20.231Z,11.64
2022-09-28T08:39:41.409Z,11.83
2022-09-28T08:41:36.930Z,11.84
2022-09-28T08:42:58.011Z,11.99
2022-09-28T08:44:24.092Z,11.81
2022-09-28T08:45:48.135Z,11.60
2022-09-28T08:48:05.819Z,11.50
2022-09-28T08:49:26.264Z,11.58
2022-09-28T08:50:53.491Z,11.46
2022-09-28T08:52:23.605Z,11.45
2022-09-28T08:53:51.531Z,11.27
2022-09-28T08:55:20.406Z,11.44
2022-09-28T08:56:27.803Z,11.63
2022-09-28T08:57:45.254Z,11.69
2022-09-28T08:58:54.794Z,11.68
2022-09-28T08:59:59.823Z,11.55
2022-09-28T09:01:08.924Z,11.51
2022-09-28T09:02:20.303Z,11.52
2022-09-28T09:03:34.189Z,11.41
2022-09-28T09:04:57.758Z,11.39
2022-09-28T09:06:29.743Z,11.34
2022-09-28T09:08:01.370Z,11.44
2022-09-28T09:09:15.648Z,11.45
2022-09-28T09:10:37.426Z,11.42
2022-09-28T09:12:13.314Z,11.62
2022-09-28T09:13:17.489Z,11.60
2022-09-28T09:14:46.587Z,11.65
2022-09-28T09:16:26.047Z,11.58
2022-09-28T09:17:49.570Z,11.57
2022-09-28T09:19:10.735Z,11.54
2022-09-28T09:21:06.169Z,11.38
2022-09-28T09:22:40.873Z,11.33
2022-09-28T09:23:47.456Z,11.30
2022-09-28T09:25:11.704Z,11.56
2022-09-28T09:26:35.276Z,11.76
2022-09-28T09:28:13.292Z,11.49
2022-09-28T09:29:31.559Z,11.46
2022-09-28T09:30:55.231Z,11.53
2022-09-28T09:32:25.679Z,11.60
2022-09-28T09:33:47.491Z,11.33
2022-09-28T09:35:30.663Z,11.52
2022-09-28T09:36:48.490Z,11.66
2022-09-28T09:38:41.026Z,11.73
2022-09-28T09:40:30.481Z,11.85
2022-09-28T09:42:23.590Z,12.14
2022-09-28T09:44:26.793Z,12.07
2022-09-28T09:46:13.954Z,11.83
2022-09-28T09:47:54.326Z,11.89
2022-09-28T09:49:07.870Z,11.84
2022-09-28T09:50:30.038Z,12.00
2022-09-28T09:51:43.923Z,12.08
2022-09-28T09:52:55.887Z,12.12
2022-09-28T09:54:06.304Z,11.98
2022-09-28T09:55:21.747Z,11.86
2022-09-28T09:56:30.627Z,12.12
2022-09-28T09:57:44.067Z,11.98
2022-09-28T09:59:26.247Z,11.72
2022-09-28T10:00:40.612Z,11.63
2022-09-28T10:01:56.495Z,11.72
2022-09-28T10:03:30.223Z,11.85
2022-09-28T10:04:46.708Z,11.89
2022-09-28T10:06:00.552Z,11.99
2022-09-28T10:07:09.787Z,12.08
2022-09-28T10:08:20.134Z,12.01
2022-09-28T10:09:27.877Z,12.06
2022-09-28T10:11:08.382Z,11.77
2022-09-28T10:12:21.754Z,12.12
2022-09-28T10:13:24.041Z,11.75
2022-09-28T10:14:31.060Z,11.73
2022-09-28T10:15:41.300Z,11.73
2022-09-28T10:17:05.068Z,11.74
2022-09-28T10:18:26.508Z,11.68
2022-09-28T10:19:47.289Z,11.65
2022-09-28T10:21:13.230Z,11.56
2022-09-28T10:22:35.190Z,11.62
2022-09-28T10:23:45.227Z,11.54
2022-09-28T10:24:52.449Z,11.44
2022-09-28T10:26:05.405Z,11.42
2022-09-28T10:27:13.701Z,11.35
2022-09-28T10:28:26.028Z,11.37
2022-09-28T10:29:34.799Z,11.48
2022-09-28T10:30:44.386Z,11.44
2022-09-28T10:31:52.103Z,11.36
2022-09-28T10:33:29.421Z,11.41
2022-09-28T10:34:32.095Z,11.47
2022-09-28T10:35:43.062Z,11.59
2022-09-28T10:36:52.261Z,11.43
2022-09-28T10:38:00.133Z,11.42
2022-09-28T10:39:28.979Z,11.34
2022-09-28T10:40:43.532Z,11.31
2022-09-28T10:41:50.527Z,11.41
2022-09-28T10:43:05.171Z,11.31
2022-09-28T10:44:17.492Z,11.44
2022-09-28T10:45:37.148Z,11.55
2022-09-28T10:46:39.474Z,11.63
2022-09-28T10:47:47.493Z,11.70
2022-09-28T10:48:54.479Z,11.68
2022-09-28T10:50:00.873Z,11.63
2022-09-28T10:51:07.507Z,11.70
2022-09-28T10:52:46.607Z,11.74
2022-09-28T10:54:16.578Z,11.93
2022-09-28T10:55:21.696Z,11.89
2022-09-28T10:56:28.654Z,11.76
2022-09-28T10:57:37.571Z,11.81
2022-09-28T10:58:43.017Z,11.87
2022-09-28T10:59:50.027Z,11.86
2022-09-28T11:01:02.380Z,11.75
2022-09-28T11:02:16.973Z,11.84
2022-09-28T11:03:29.879Z,11.80
2022-09-28T11:04:41.639Z,11.66
2022-09-28T11:05:57.754Z,11.62
2022-09-28T11:07:02.230Z,11.59
2022-09-28T11:08:07.688Z,11.59
2022-09-28T11:09:30.778Z,11.68
2022-09-28T11:10:37.271Z,11.82
2022-09-28T11:11:47.759Z,11.57
2022-09-28T11:12:51.328Z,11.59
2022-09-28T11:14:01.646Z,11.75
2022-09-28T11:15:16.818Z,11.81
2022-09-28T11:16:39.332Z,11.89
2022-09-28T11:17:43.745Z,11.85
2022-09-28T11:18:47.257Z,11.81
2022-09-28T11:19:50.238Z,11.79
2022-09-28T11:20:52.537Z,11.83
2022-09-28T11:21:57.294Z,11.80
2022-09-28T11:23:30.077Z,11.79
2022-09-28T11:24:37.592Z,11.72
2022-09-28T11:25:41.182Z,11.77
2022-09-28T11:26:46.450Z,11.87
2022-09-28T11:27:54.228Z,11.92
2022-09-28T11:28:56.741Z,12.05
2022-09-28T11:30:49.924Z,11.80
2022-09-28T11:32:24.349Z,11.50
2022-09-28T11:33:50.011Z,11.40
2022-09-28T11:35:19.845Z,11.41
2022-09-28T11:36:54.461Z,11.49
2022-09-28T11:38:05.035Z,11.02
2022-09-28T11:40:16.212Z,11.10
2022-09-28T11:41:45.815Z,11.09
2022-09-28T11:44:48.902Z,11.05
2022-09-28T11:46:02.185Z,10.91
2022-09-28T11:47:26.361Z,10.99
2022-09-28T11:48:43.089Z,10.96
2022-09-28T11:50:23.539Z,11.04
2022-09-28T11:51:36.326Z,10.94
2022-09-28T11:53:09.755Z,11.16
2022-09-28T11:54:26.154Z,11.31
2022-09-28T11:55:54.604Z,11.48
2022-09-28T11:56:59.858Z,11.55
2022-09-28T11:58:11.700Z,11.64
2022-09-28T11:59:29.379Z,11.82
2022-09-28T12:00:38.190Z,12.09
2022-09-28T12:01:57.364Z,12.28
2022-09-28T12:03:18.521Z,12.34
2022-09-28T12:04:40.875Z,12.44
2022-09-28T12:06:02.867Z,12.48
2022-09-28T12:07:22.317Z,12.58
2022-09-28T12:08:30.183Z,12.61
2022-09-28T12:09:41.458Z,12.64
2022-09-28T12:11:32.447Z,12.53
2022-09-28T12:13:04.605Z,12.42
2022-09-28T12:14:16.116Z,12.45
2022-09-28T12:15:38.176Z,12.54
2022-09-28T12:17:06.229Z,12.43
2022-09-28T12:18:41.352Z,12.16
2022-09-28T12:19:56.742Z,12.18
2022-09-28T12:21:06.367Z,12.24
2022-09-28T12:22:17.286Z,12.29
2022-09-28T12:23:25.942Z,12.25
2022-09-28T12:24:30.599Z,12.18
2022-09-28T12:26:01.089Z,12.15
2022-09-28T12:27:17.466Z,12.20
2022-09-28T12:28:39.787Z,12.23
2022-09-28T12:29:56.149Z,12.28
2022-09-28T12:31:12.046Z,12.21
2022-09-28T12:32:17.012Z,12.20
2022-09-28T12:33:19.222Z,12.30
2022-09-28T12:34:22.661Z,12.36
2022-09-28T12:35:38.771Z,12.47
2022-09-28T12:36:43.969Z,12.43
2022-09-28T12:38:11.191Z,12.41
2022-09-28T12:39:57.058Z,12.42
2022-09-28T12:41:16.658Z,12.29
2022-09-28T12:42:55.392Z,12.14
2022-09-28T12:44:10.288Z,12.16
2022-09-28T12:45:38.463Z,12.03
2022-09-28T12:47:25.804Z,11.84
2022-09-28T12:48:36.186Z,11.83
2022-09-28T12:50:37.687Z,11.95
2022-09-28T12:51:33.032Z,12.17
2022-09-28T12:53:07.384Z,12.32
2022-09-28T12:54:28.246Z,12.19
2022-09-28T12:55:56.251Z,12.00
2022-09-28T12:57:10.523Z,11.58
2022-09-28T12:59:03.691Z,11.59
2022-09-28T13:00:16.060Z,11.60
2022-09-28T13:02:04.728Z,11.52
2022-09-28T13:03:45.708Z,11.54
2022-09-28T13:05:03.347Z,11.69
2022-09-28T13:06:17.349Z,11.74
2022-09-28T13:07:54.041Z,11.73
2022-09-28T13:09:10.035Z,11.81
2022-09-28T13:10:40.503Z,11.74
2022-09-28T13:11:42.685Z,11.83
2022-09-28T13:13:12.488Z,11.85
2022-09-28T13:14:17.687Z,12.01
2022-09-28T13:15:52.507Z,12.14
2022-09-28T13:17:16.024Z,12.23
2022-09-28T13:18:44.283Z,12.21
2022-09-28T13:19:46.518Z,12.30
2022-09-28T13:21:00.584Z,12.33
2022-09-28T13:22:24.384Z,12.39
2022-09-28T13:23:38.691Z,12.38
2022-09-28T13:24:44.378Z,12.34
2022-09-28T13:25:50.944Z,12.43
2022-09-28T13:26:57.789Z,12.38
2022-09-28T13:28:03.934Z,12.42
2022-09-28T13:29:15.928Z,12.41
2022-09-28T13:30:19.308Z,12.47
2022-09-28T13:31:33.165Z,12.40
2022-09-28T13:32:38.919Z,12.40
2022-09-28T13:33:44.394Z,12.47
2022-09-28T13:34:49.833Z,12.55
2022-09-28T13:35:52.152Z,12.59
2022-09-28T13:37:22.167Z,12.48
2022-09-28T13:38:25.374Z,12.50
2022-09-28T13:39:45.872Z,12.45
2022-09-28T13:41:11.486Z,12.50
2022-09-28T13:42:45.096Z,12.43
2022-09-28T13:44:07.500Z,12.24
2022-09-28T13:45:22.023Z,12.25
2022-09-28T13:46:36.272Z,12.34
2022-09-28T13:47:44.654Z,12.27
2022-09-28T13:48:57.369Z,12.25
2022-09-28T13:50:26.947Z,12.38
2022-09-28T13:51:57.148Z,12.50
2022-09-28T13:53:19.116Z,12.61
2022-09-28T13:54:21.224Z,12.61
2022-09-28T13:55:53.917Z,12.66
2022-09-28T13:57:19.707Z,12.51
2022-09-28T13:58:29.666Z,12.48
2022-09-28T13:59:34.426Z,12.50
2022-09-28T14:00:53.643Z,12.45
2022-09-28T14:02:09.493Z,12.44
2022-09-28T14:03:23.436Z,12.27
2022-09-28T14:04:53.244Z,11.94
2022-09-28T14:06:23.293Z,11.44
2022-09-28T14:07:36.295Z,11.35
2022-09-28T14:08:44.762Z,11.18
2022-09-28T14:09:48.593Z,11.16
2022-09-28T14:10:56.163Z,11.19
2022-09-28T14:12:04.264Z,11.15
2022-09-28T14:13:09.197Z,11.21
2022-09-28T14:14:13.639Z,11.25
2022-09-28T14:15:39.461Z,11.29
2022-09-28T14:16:42.777Z,11.31
2022-09-28T14:17:52.685Z,11.36
2022-09-28T14:19:02.374Z,11.45
2022-09-28T14:20:08.215Z,11.54
2022-09-28T14:21:35.112Z,11.64
2022-09-28T14:22:57.793Z,11.74
2022-09-28T14:24:15.524Z,11.81
2022-09-28T14:25:27.604Z,11.84
2022-09-28T14:26:51.356Z,11.69
2022-09-28T14:28:02.231Z,11.55
2022-09-28T14:29:13.238Z,11.37
2022-09-28T14:30:15.241Z,11.23
2022-09-28T14:31:26.415Z,11.14
2022-09-28T14:32:37.187Z,11.19
2022-09-28T14:33:42.642Z,11.14
2022-09-28T14:34:48.013Z,11.01
2022-09-28T14:35:58.292Z,10.96
2022-09-28T14:37:22.272Z,10.99
2022-09-28T14:38:53.897Z,11.13
2022-09-28T14:40:14.785Z,11.24
2022-09-28T14:41:17.921Z,11.28
2022-09-28T14:42:24.094Z,11.33
2022-09-28T14:43:35.300Z,11.30
2022-09-28T14:45:06.398Z,11.27
2022-09-28T14:46:15.684Z,11.23
2022-09-28T14:47:34.278Z,11.25
2022-09-28T14:48:59.106Z,11.22
2022-09-28T14:50:18.268Z,11.26
2022-09-28T14:51:35.449Z,11.26
2022-09-28T14:52:46.470Z,11.14
2022-09-28T14:53:50.845Z,11.03
2022-09-28T14:54:54.671Z,10.99
2022-09-28T14:55:59.947Z,11.02
2022-09-28T14:57:17.578Z,11.08
2022-09-28T14:58:23.731Z,11.10
2022-09-28T14:59:30.348Z,10.99
2022-09-28T15:00:33.004Z,10.98
2022-09-28T15:01:36.338Z,11.02
2022-09-28T15:02:39.508Z,11.00
2022-09-28T15:03:43.556Z,11.03
2022-09-28T15:05:02.661Z,10.95
2022-09-28T15:06:05.021Z,10.94
2022-09-28T15:07:22.094Z,10.85
2022-09-28T15:08:35.931Z,10.77
2022-09-28T15:09:39.274Z,10.74
2022-09-28T15:10:47.282Z,10.75
2022-09-28T15:11:55.445Z,10.75
2022-09-28T15:13:01.288Z,10.71
2022-09-28T15:14:08.246Z,10.81
2022-09-28T15:15:38.511Z,10.83
2022-09-28T15:16:40.676Z,10.77
2022-09-28T15:17:53.353Z,10.79
2022-09-28T15:19:08.970Z,10.71
2022-09-28T15:20:24.105Z,10.70
2022-09-28T15:21:34.491Z,10.74
2022-09-28T15:22:37.904Z,10.71
2022-09-28T15:23:45.456Z,10.78
2022-09-28T15:25:02.429Z,10.75
2022-09-28T15:26:08.560Z,10.84
2022-09-28T15:27:15.982Z,10.79
2022-09-28T15:28:22.121Z,10.71
2022-09-28T15:29:28.126Z,10.66
2022-09-28T15:30:36.380Z,10.66
2022-09-28T15:31:38.653Z,10.66
2022-09-28T15:32:40.867Z,10.52
2022-09-28T15:34:01.883Z,10.44
2022-09-28T15:35:14.458Z,10.38
2022-09-28T15:36:30.018Z,10.41
2022-09-28T15:37:40.308Z,10.51
2022-09-28T15:38:43.201Z,10.38
2022-09-28T15:39:48.084Z,10.37
2022-09-28T15:40:50.802Z,10.43
2022-09-28T15:41:53.275Z,10.40
2022-09-28T15:42:59.245Z,10.32
2022-09-28T15:44:10.725Z,10.32
2022-09-28T15:45:26.768Z,10.35
2022-09-28T15:46:30.862Z,10.30
2022-09-28T15:47:33.906Z,10.32
2022-09-28T15:48:36.799Z,10.31
2022-09-28T15:49:46.844Z,10.42
2022-09-28T15:51:00.289Z,10.47
2022-09-28T15:52:03.501Z,10.52
2022-09-28T15:53:06.311Z,10.56